sensor_id;sensor_type;location;lat;lon;timestamp;P1;P2;P0
73305;PMS5003;61530;51.158;0.880;2023-04-30T00:00:30;65;61;35
73305;PMS5003;61530;51.158;0.880;2023-04-30T00:01:36;69;60;35
73305;PMS5003;61530;51.158;0.880;2023-04-30T00:02:40;63;60;34
73305;PMS5003;61530;51.158;0.880;2023-04-30T00:03:43;65;61;34
73305;PMS5003;61530;51.158;0.880;2023-04-30T00:04:46;53;49;32
73305;PMS5003;61530;51.158;0.880;2023-04-30T00:05:52;64;63;31
73305;PMS5003;61530;51.158;0.880;2023-04-30T00:06:56;60;57;36
73305;PMS5003;61530;51.158;0.880;2023-04-30T00:07:59;56;50;29
73305;PMS5003;61530;51.158;0.880;2023-04-30T00:09:03;65;56;33
73305;PMS5003;61530;51.158;0.880;2023-04-30T00:10:08;59;55;33
73305;PMS5003;61530;51.158;0.880;2023-04-30T00:11:12;64;60;35
73305;PMS5003;61530;51.158;0.880;2023-04-30T00:12:15;69;62;33
73305;PMS5003;61530;51.158;0.880;2023-04-30T00:13:18;67;63;35
73305;PMS5003;61530;51.158;0.880;2023-04-30T00:14:24;72;68;34
73305;PMS5003;61530;51.158;0.880;2023-04-30T00:15:28;57;54;30
73305;PMS5003;61530;51.158;0.880;2023-04-30T00:16:31;58;52;33
73305;PMS5003;61530;51.158;0.880;2023-04-30T00:17:35;55;51;29
73305;PMS5003;61530;51.158;0.880;2023-04-30T00:18:40;58;57;32
73305;PMS5003;61530;51.158;0.880;2023-04-30T00:19:44;63;62;35
73305;PMS5003;61530;51.158;0.880;2023-04-30T00:20:47;61;56;31
73305;PMS5003;61530;51.158;0.880;2023-04-30T00:21:51;61;58;32
73305;PMS5003;61530;51.158;0.880;2023-04-30T00:22:56;59;56;32
73305;PMS5003;61530;51.158;0.880;2023-04-30T00:24:00;69;63;33
73305;PMS5003;61530;51.158;0.880;2023-04-30T00:25:03;54;52;31
73305;PMS5003;61530;51.158;0.880;2023-04-30T00:26:06;57;51;33
73305;PMS5003;61530;51.158;0.880;2023-04-30T00:27:12;56;53;30
73305;PMS5003;61530;51.158;0.880;2023-04-30T00:28:16;65;56;31
73305;PMS5003;61530;51.158;0.880;2023-04-30T00:29:19;62;58;31
73305;PMS5003;61530;51.158;0.880;2023-04-30T00:30:22;51;50;29
73305;PMS5003;61530;51.158;0.880;2023-04-30T00:31:28;68;60;36
73305;PMS5003;61530;51.158;0.880;2023-04-30T00:32:32;66;58;30
73305;PMS5003;61530;51.158;0.880;2023-04-30T00:33:35;60;58;31
73305;PMS5003;61530;51.158;0.880;2023-04-30T00:34:39;63;57;31
73305;PMS5003;61530;51.158;0.880;2023-04-30T00:35:44;72;63;34
73305;PMS5003;61530;51.158;0.880;2023-04-30T00:36:48;65;58;35
73305;PMS5003;61530;51.158;0.880;2023-04-30T00:37:51;57;50;32
73305;PMS5003;61530;51.158;0.880;2023-04-30T00:38:54;67;55;30
73305;PMS5003;61530;51.158;0.880;2023-04-30T00:40:00;62;56;31
73305;PMS5003;61530;51.158;0.880;2023-04-30T00:41:04;62;56;31
73305;PMS5003;61530;51.158;0.880;2023-04-30T00:42:07;61;56;29
73305;PMS5003;61530;51.158;0.880;2023-04-30T00:43:10;59;59;32
73305;PMS5003;61530;51.158;0.880;2023-04-30T00:44:16;66;62;31
73305;PMS5003;61530;51.158;0.880;2023-04-30T00:45:20;57;52;30
73305;PMS5003;61530;51.158;0.880;2023-04-30T00:46:23;61;56;29
73305;PMS5003;61530;51.158;0.880;2023-04-30T00:47:26;62;58;33
73305;PMS5003;61530;51.158;0.880;2023-04-30T00:48:32;58;52;29
73305;PMS5003;61530;51.158;0.880;2023-04-30T00:49:36;61;57;29
73305;PMS5003;61530;51.158;0.880;2023-04-30T00:50:39;64;60;33
73305;PMS5003;61530;51.158;0.880;2023-04-30T00:51:42;58;52;27
73305;PMS5003;61530;51.158;0.880;2023-04-30T00:52:48;55;50;32
73305;PMS5003;61530;51.158;0.880;2023-04-30T00:53:52;58;57;32
73305;PMS5003;61530;51.158;0.880;2023-04-30T00:54:55;63;59;34
73305;PMS5003;61530;51.158;0.880;2023-04-30T00:55:58;61;51;29
73305;PMS5003;61530;51.158;0.880;2023-04-30T00:57:04;58;54;28
73305;PMS5003;61530;51.158;0.880;2023-04-30T00:58:08;64;54;29
73305;PMS5003;61530;51.158;0.880;2023-04-30T00:59:11;55;52;28
73305;PMS5003;61530;51.158;0.880;2023-04-30T01:00:15;64;59;30
73305;PMS5003;61530;51.158;0.880;2023-04-30T01:01:20;61;51;32
73305;PMS5003;61530;51.158;0.880;2023-04-30T01:02:24;53;48;28
73305;PMS5003;61530;51.158;0.880;2023-04-30T01:03:27;57;52;29
73305;PMS5003;61530;51.158;0.880;2023-04-30T01:04:31;63;59;30
73305;PMS5003;61530;51.158;0.880;2023-04-30T01:05:36;48;46;29
73305;PMS5003;61530;51.158;0.880;2023-04-30T01:06:40;61;56;33
73305;PMS5003;61530;51.158;0.880;2023-04-30T01:07:43;63;52;28
73305;PMS5003;61530;51.158;0.880;2023-04-30T01:08:47;61;53;30
73305;PMS5003;61530;51.158;0.880;2023-04-30T01:09:52;47;44;28
73305;PMS5003;61530;51.158;0.880;2023-04-30T01:11:00;50;48;28
73305;PMS5003;61530;51.158;0.880;2023-04-30T01:12:02;59;56;28
73305;PMS5003;61530;51.158;0.880;2023-04-30T01:13:05;57;51;31
73305;PMS5003;61530;51.158;0.880;2023-04-30T01:14:09;60;52;29
73305;PMS5003;61530;51.158;0.880;2023-04-30T01:15:13;45;45;27
73305;PMS5003;61530;51.158;0.880;2023-04-30T01:16:17;49;47;26
73305;PMS5003;61530;51.158;0.880;2023-04-30T01:17:20;58;49;27
73305;PMS5003;61530;51.158;0.880;2023-04-30T01:18:25;56;51;27
73305;PMS5003;61530;51.158;0.880;2023-04-30T01:19:30;54;50;27
73305;PMS5003;61530;51.158;0.880;2023-04-30T01:20:31;55;54;28
73305;PMS5003;61530;51.158;0.880;2023-04-30T01:21:34;52;49;28
73305;PMS5003;61530;51.158;0.880;2023-04-30T01:22:44;49;47;25
73305;PMS5003;61530;51.158;0.880;2023-04-30T01:23:49;59;53;29
73305;PMS5003;61530;51.158;0.880;2023-04-30T01:24:53;46;46;24
73305;PMS5003;61530;51.158;0.880;2023-04-30T01:25:52;55;52;29
73305;PMS5003;61530;51.158;0.880;2023-04-30T01:26:58;51;47;26
73305;PMS5003;61530;51.158;0.880;2023-04-30T01:28:02;48;47;25
73305;PMS5003;61530;51.158;0.880;2023-04-30T01:29:03;49;46;25
73305;PMS5003;61530;51.158;0.880;2023-04-30T01:30:07;53;47;27
73305;PMS5003;61530;51.158;0.880;2023-04-30T01:31:12;52;50;28
73305;PMS5003;61530;51.158;0.880;2023-04-30T01:32:16;54;50;24
73305;PMS5003;61530;51.158;0.880;2023-04-30T01:33:19;60;48;28
73305;PMS5003;61530;51.158;0.880;2023-04-30T01:34:23;53;47;25
73305;PMS5003;61530;51.158;0.880;2023-04-30T01:35:37;43;40;26
73305;PMS5003;61530;51.158;0.880;2023-04-30T01:36:34;58;53;28
73305;PMS5003;61530;51.158;0.880;2023-04-30T01:37:38;53;47;26
73305;PMS5003;61530;51.158;0.880;2023-04-30T01:38:44;57;55;28
73305;PMS5003;61530;51.158;0.880;2023-04-30T01:39:49;55;50;26
73305;PMS5003;61530;51.158;0.880;2023-04-30T01:40:49;62;56;29
73305;PMS5003;61530;51.158;0.880;2023-04-30T01:41:53;49;49;29
73305;PMS5003;61530;51.158;0.880;2023-04-30T01:42:57;54;48;25
73305;PMS5003;61530;51.158;0.880;2023-04-30T01:44:05;42;38;23
73305;PMS5003;61530;51.158;0.880;2023-04-30T01:45:09;52;48;25
73305;PMS5003;61530;51.158;0.880;2023-04-30T01:46:10;48;44;27
73305;PMS5003;61530;51.158;0.880;2023-04-30T01:47:13;54;49;28
73305;PMS5003;61530;51.158;0.880;2023-04-30T01:48:18;47;47;26
73305;PMS5003;61530;51.158;0.880;2023-04-30T01:49:21;55;47;24
73305;PMS5003;61530;51.158;0.880;2023-04-30T01:50:24;52;48;23
73305;PMS5003;61530;51.158;0.880;2023-04-30T01:51:29;56;49;25
73305;PMS5003;61530;51.158;0.880;2023-04-30T01:52:35;52;51;25
73305;PMS5003;61530;51.158;0.880;2023-04-30T01:53:37;45;45;25
73305;PMS5003;61530;51.158;0.880;2023-04-30T01:54:41;50;48;24
73305;PMS5003;61530;51.158;0.880;2023-04-30T01:55:43;46;42;24
73305;PMS5003;61530;51.158;0.880;2023-04-30T01:56:50;47;44;24
73305;PMS5003;61530;51.158;0.880;2023-04-30T01:57:55;54;51;27
73305;PMS5003;61530;51.158;0.880;2023-04-30T01:58:55;54;49;27
73305;PMS5003;61530;51.158;0.880;2023-04-30T01:59:58;53;48;28
73305;PMS5003;61530;51.158;0.880;2023-04-30T02:01:04;58;50;26
73305;PMS5003;61530;51.158;0.880;2023-04-30T02:02:08;45;42;22
73305;PMS5003;61530;51.158;0.880;2023-04-30T02:03:11;51;45;26
73305;PMS5003;61530;51.158;0.880;2023-04-30T02:04:15;51;47;25
73305;PMS5003;61530;51.158;0.880;2023-04-30T02:05:20;46;41;24
73305;PMS5003;61530;51.158;0.880;2023-04-30T02:06:24;42;39;24
73305;PMS5003;61530;51.158;0.880;2023-04-30T02:07:30;43;41;22
73305;PMS5003;61530;51.158;0.880;2023-04-30T02:08:31;50;45;23
73305;PMS5003;61530;51.158;0.880;2023-04-30T02:09:36;43;41;24
73305;PMS5003;61530;51.158;0.880;2023-04-30T02:10:40;46;44;23
73305;PMS5003;61530;51.158;0.880;2023-04-30T02:11:43;47;43;22
73305;PMS5003;61530;51.158;0.880;2023-04-30T02:12:47;58;55;27
73305;PMS5003;61530;51.158;0.880;2023-04-30T02:13:52;52;46;25
73305;PMS5003;61530;51.158;0.880;2023-04-30T02:14:56;48;45;25
73305;PMS5003;61530;51.158;0.880;2023-04-30T02:15:59;48;47;23
73305;PMS5003;61530;51.158;0.880;2023-04-30T02:17:03;49;47;24
73305;PMS5003;61530;51.158;0.880;2023-04-30T02:18:08;47;46;24
73305;PMS5003;61530;51.158;0.880;2023-04-30T02:19:12;50;43;24
73305;PMS5003;61530;51.158;0.880;2023-04-30T02:20:15;52;43;24
73305;PMS5003;61530;51.158;0.880;2023-04-30T02:21:18;48;47;25
73305;PMS5003;61530;51.158;0.880;2023-04-30T02:22:24;53;48;26
73305;PMS5003;61530;51.158;0.880;2023-04-30T02:23:28;57;48;26
73305;PMS5003;61530;51.158;0.880;2023-04-30T02:24:31;49;48;24
73305;PMS5003;61530;51.158;0.880;2023-04-30T02:25:34;46;43;24
73305;PMS5003;61530;51.158;0.880;2023-04-30T02:26:40;55;47;28
73305;PMS5003;61530;51.158;0.880;2023-04-30T02:27:44;50;46;24
73305;PMS5003;61530;51.158;0.880;2023-04-30T02:28:47;49;47;23
73305;PMS5003;61530;51.158;0.880;2023-04-30T02:29:51;57;43;26
73305;PMS5003;61530;51.158;0.880;2023-04-30T02:30:56;42;40;25
73305;PMS5003;61530;51.158;0.880;2023-04-30T02:32:00;46;42;25
73305;PMS5003;61530;51.158;0.880;2023-04-30T02:33:03;49;41;23
73305;PMS5003;61530;51.158;0.880;2023-04-30T02:34:06;46;43;22
73305;PMS5003;61530;51.158;0.880;2023-04-30T02:35:12;45;42;24
73305;PMS5003;61530;51.158;0.880;2023-04-30T02:36:15;44;41;23
73305;PMS5003;61530;51.158;0.880;2023-04-30T02:37:19;53;45;22
73305;PMS5003;61530;51.158;0.880;2023-04-30T02:38:23;53;44;25
73305;PMS5003;61530;51.158;0.880;2023-04-30T02:39:28;43;40;23
73305;PMS5003;61530;51.158;0.880;2023-04-30T02:40:32;49;47;23
73305;PMS5003;61530;51.158;0.880;2023-04-30T02:41:35;55;49;23
73305;PMS5003;61530;51.158;0.880;2023-04-30T02:42:39;48;44;24
73305;PMS5003;61530;51.158;0.880;2023-04-30T02:43:44;50;44;22
73305;PMS5003;61530;51.158;0.880;2023-04-30T02:44:47;48;43;22
73305;PMS5003;61530;51.158;0.880;2023-04-30T02:45:51;46;44;27
73305;PMS5003;61530;51.158;0.880;2023-04-30T02:46:54;46;41;21
73305;PMS5003;61530;51.158;0.880;2023-04-30T02:48:00;40;38;21
73305;PMS5003;61530;51.158;0.880;2023-04-30T02:49:04;46;43;22
73305;PMS5003;61530;51.158;0.880;2023-04-30T02:50:07;51;47;25
73305;PMS5003;61530;51.158;0.880;2023-04-30T02:51:11;47;43;22
73305;PMS5003;61530;51.158;0.880;2023-04-30T02:52:16;48;45;22
73305;PMS5003;61530;51.158;0.880;2023-04-30T02:53:20;48;43;24
73305;PMS5003;61530;51.158;0.880;2023-04-30T02:54:23;50;49;22
73305;PMS5003;61530;51.158;0.880;2023-04-30T02:55:26;39;38;22
73305;PMS5003;61530;51.158;0.880;2023-04-30T02:56:32;45;41;22
73305;PMS5003;61530;51.158;0.880;2023-04-30T02:57:36;46;45;23
73305;PMS5003;61530;51.158;0.880;2023-04-30T02:58:39;50;43;23
73305;PMS5003;61530;51.158;0.880;2023-04-30T02:59:42;43;43;22
73305;PMS5003;61530;51.158;0.880;2023-04-30T03:00:48;49;45;24
73305;PMS5003;61530;51.158;0.880;2023-04-30T03:01:51;44;41;22
73305;PMS5003;61530;51.158;0.880;2023-04-30T03:02:55;45;43;23
73305;PMS5003;61530;51.158;0.880;2023-04-30T03:03:58;46;43;27
73305;PMS5003;61530;51.158;0.880;2023-04-30T03:05:04;47;45;23
73305;PMS5003;61530;51.158;0.880;2023-04-30T03:06:08;59;55;26
73305;PMS5003;61530;51.158;0.880;2023-04-30T03:07:11;44;42;24
73305;PMS5003;61530;51.158;0.880;2023-04-30T03:08:14;48;42;23
73305;PMS5003;61530;51.158;0.880;2023-04-30T03:09:20;54;49;26
73305;PMS5003;61530;51.158;0.880;2023-04-30T03:10:24;46;43;27
73305;PMS5003;61530;51.158;0.880;2023-04-30T03:11:27;55;49;24
73305;PMS5003;61530;51.158;0.880;2023-04-30T03:12:30;53;50;26
73305;PMS5003;61530;51.158;0.880;2023-04-30T03:13:36;44;39;21
73305;PMS5003;61530;51.158;0.880;2023-04-30T03:14:40;48;41;26
73305;PMS5003;61530;51.158;0.880;2023-04-30T03:15:43;53;47;26
73305;PMS5003;61530;51.158;0.880;2023-04-30T03:16:46;46;43;23
73305;PMS5003;61530;51.158;0.880;2023-04-30T03:17:52;44;41;24
73305;PMS5003;61530;51.158;0.880;2023-04-30T03:18:55;45;42;23
73305;PMS5003;61530;51.158;0.880;2023-04-30T03:19:59;53;47;24
73305;PMS5003;61530;51.158;0.880;2023-04-30T03:21:03;46;45;22
73305;PMS5003;61530;51.158;0.880;2023-04-30T03:22:09;48;46;26
73305;PMS5003;61530;51.158;0.880;2023-04-30T03:23:12;45;45;24
73305;PMS5003;61530;51.158;0.880;2023-04-30T03:24:15;54;47;22
73305;PMS5003;61530;51.158;0.880;2023-04-30T03:25:18;55;46;22
73305;PMS5003;61530;51.158;0.880;2023-04-30T03:26:24;44;41;23
73305;PMS5003;61530;51.158;0.880;2023-04-30T03:27:27;39;38;22
73305;PMS5003;61530;51.158;0.880;2023-04-30T03:28:31;43;43;22
73305;PMS5003;61530;51.158;0.880;2023-04-30T03:29:34;45;39;21
73305;PMS5003;61530;51.158;0.880;2023-04-30T03:30:40;50;49;24
73305;PMS5003;61530;51.158;0.880;2023-04-30T03:31:44;47;41;24
73305;PMS5003;61530;51.158;0.880;2023-04-30T03:32:47;44;40;22
73305;PMS5003;61530;51.158;0.880;2023-04-30T03:33:51;47;43;22
73305;PMS5003;61530;51.158;0.880;2023-04-30T03:34:56;46;45;22
73305;PMS5003;61530;51.158;0.880;2023-04-30T03:35:59;49;40;22
73305;PMS5003;61530;51.158;0.880;2023-04-30T03:37:03;54;47;25
73305;PMS5003;61530;51.158;0.880;2023-04-30T03:38:06;52;47;24
73305;PMS5003;61530;51.158;0.880;2023-04-30T03:39:13;38;38;22
73305;PMS5003;61530;51.158;0.880;2023-04-30T03:40:16;48;39;23
73305;PMS5003;61530;51.158;0.880;2023-04-30T03:48:09;40;39;23
73305;PMS5003;61530;51.158;0.880;2023-04-30T03:49:12;43;40;23
73305;PMS5003;61530;51.158;0.880;2023-04-30T03:50:16;42;37;23
73305;PMS5003;61530;51.158;0.880;2023-04-30T03:51:19;40;38;22
73305;PMS5003;61530;51.158;0.880;2023-04-30T03:52:22;54;45;28
73305;PMS5003;61530;51.158;0.880;2023-04-30T03:53:28;43;38;21
73305;PMS5003;61530;51.158;0.880;2023-04-30T03:54:32;53;43;20
73305;PMS5003;61530;51.158;0.880;2023-04-30T03:55:35;39;36;21
73305;PMS5003;61530;51.158;0.880;2023-04-30T03:56:39;47;43;22
73305;PMS5003;61530;51.158;0.880;2023-04-30T03:57:44;43;41;21
73305;PMS5003;61530;51.158;0.880;2023-04-30T03:58:48;38;36;22
73305;PMS5003;61530;51.158;0.880;2023-04-30T03:59:51;47;39;23
73305;PMS5003;61530;51.158;0.880;2023-04-30T04:00:55;45;39;23
73305;PMS5003;61530;51.158;0.880;2023-04-30T04:02:00;49;43;23
73305;PMS5003;61530;51.158;0.880;2023-04-30T04:03:04;44;38;22
73305;PMS5003;61530;51.158;0.880;2023-04-30T04:04:07;46;41;22
73305;PMS5003;61530;51.158;0.880;2023-04-30T04:05:11;44;39;21
73305;PMS5003;61530;51.158;0.880;2023-04-30T04:06:16;43;40;23
73305;PMS5003;61530;51.158;0.880;2023-04-30T04:07:20;50;44;22
73305;PMS5003;61530;51.158;0.880;2023-04-30T04:08:23;45;42;21
73305;PMS5003;61530;51.158;0.880;2023-04-30T04:09:26;46;40;23
73305;PMS5003;61530;51.158;0.880;2023-04-30T04:10:32;48;39;22
73305;PMS5003;61530;51.158;0.880;2023-04-30T04:11:36;49;46;22
73305;PMS5003;61530;51.158;0.880;2023-04-30T04:12:39;39;39;21
73305;PMS5003;61530;51.158;0.880;2023-04-30T04:13:43;45;40;22
73305;PMS5003;61530;51.158;0.880;2023-04-30T04:14:48;49;44;22
73305;PMS5003;61530;51.158;0.880;2023-04-30T04:15:52;45;37;20
73305;PMS5003;61530;51.158;0.880;2023-04-30T04:16:55;44;40;20
73305;PMS5003;61530;51.158;0.880;2023-04-30T04:17:58;40;39;19
73305;PMS5003;61530;51.158;0.880;2023-04-30T04:19:04;39;38;21
73305;PMS5003;61530;51.158;0.880;2023-04-30T04:20:08;45;40;22
73305;PMS5003;61530;51.158;0.880;2023-04-30T04:21:11;37;37;21
73305;PMS5003;61530;51.158;0.880;2023-04-30T04:22:15;49;45;21
73305;PMS5003;61530;51.158;0.880;2023-04-30T04:23:20;44;43;21
73305;PMS5003;61530;51.158;0.880;2023-04-30T04:24:24;46;41;24
73305;PMS5003;61530;51.158;0.880;2023-04-30T04:25:27;46;42;21
73305;PMS5003;61530;51.158;0.880;2023-04-30T04:26:30;43;43;21
73305;PMS5003;61530;51.158;0.880;2023-04-30T04:27:36;40;39;22
73305;PMS5003;61530;51.158;0.880;2023-04-30T04:28:40;48;43;20
73305;PMS5003;61530;51.158;0.880;2023-04-30T04:29:43;45;43;23
73305;PMS5003;61530;51.158;0.880;2023-04-30T04:30:48;44;39;23
73305;PMS5003;61530;51.158;0.880;2023-04-30T04:31:52;51;45;23
73305;PMS5003;61530;51.158;0.880;2023-04-30T04:32:56;44;43;23
73305;PMS5003;61530;51.158;0.880;2023-04-30T04:34:02;44;41;24
73305;PMS5003;61530;51.158;0.880;2023-04-30T04:35:03;44;40;24
73305;PMS5003;61530;51.158;0.880;2023-04-30T04:36:08;48;42;21
73305;PMS5003;61530;51.158;0.880;2023-04-30T04:37:12;39;37;23
73305;PMS5003;61530;51.158;0.880;2023-04-30T04:38:15;44;39;21
73305;PMS5003;61530;51.158;0.880;2023-04-30T04:39:19;50;45;25
73305;PMS5003;61530;51.158;0.880;2023-04-30T04:40:24;48;44;23
73305;PMS5003;61530;51.158;0.880;2023-04-30T04:41:28;50;45;26
73305;PMS5003;61530;51.158;0.880;2023-04-30T04:42:31;39;39;20
73305;PMS5003;61530;51.158;0.880;2023-04-30T04:43:35;41;37;25
73305;PMS5003;61530;51.158;0.880;2023-04-30T04:44:40;40;38;22
73305;PMS5003;61530;51.158;0.880;2023-04-30T04:45:44;41;40;22
73305;PMS5003;61530;51.158;0.880;2023-04-30T04:46:47;44;41;23
73305;PMS5003;61530;51.158;0.880;2023-04-30T04:47:51;44;39;21
73305;PMS5003;61530;51.158;0.880;2023-04-30T04:48:56;46;43;22
73305;PMS5003;61530;51.158;0.880;2023-04-30T04:50:00;47;43;20
73305;PMS5003;61530;51.158;0.880;2023-04-30T04:51:03;48;45;27
73305;PMS5003;61530;51.158;0.880;2023-04-30T04:52:06;45;43;25
73305;PMS5003;61530;51.158;0.880;2023-04-30T04:53:12;46;42;21
73305;PMS5003;61530;51.158;0.880;2023-04-30T04:54:16;39;35;21
73305;PMS5003;61530;51.158;0.880;2023-04-30T04:55:19;44;38;21
73305;PMS5003;61530;51.158;0.880;2023-04-30T04:56:23;43;38;21
73305;PMS5003;61530;51.158;0.880;2023-04-30T04:57:28;47;45;21
73305;PMS5003;61530;51.158;0.880;2023-04-30T04:58:32;39;36;23
73305;PMS5003;61530;51.158;0.880;2023-04-30T04:59:35;40;36;22
73305;PMS5003;61530;51.158;0.880;2023-04-30T05:00:39;47;45;22
73305;PMS5003;61530;51.158;0.880;2023-04-30T05:01:44;44;42;20
73305;PMS5003;61530;51.158;0.880;2023-04-30T05:02:48;43;38;22
73305;PMS5003;61530;51.158;0.880;2023-04-30T05:03:51;47;43;22
73305;PMS5003;61530;51.158;0.880;2023-04-30T05:04:55;44;36;20
73305;PMS5003;61530;51.158;0.880;2023-04-30T05:06:00;44;38;25
73305;PMS5003;61530;51.158;0.880;2023-04-30T05:07:04;42;39;21
73305;PMS5003;61530;51.158;0.880;2023-04-30T05:08:07;43;38;20
73305;PMS5003;61530;51.158;0.880;2023-04-30T05:09:10;46;44;25
73305;PMS5003;61530;51.158;0.880;2023-04-30T05:10:16;45;40;21
73305;PMS5003;61530;51.158;0.880;2023-04-30T05:11:20;45;42;23
73305;PMS5003;61530;51.158;0.880;2023-04-30T05:12:23;45;40;22
73305;PMS5003;61530;51.158;0.880;2023-04-30T05:13:27;51;44;22
73305;PMS5003;61530;51.158;0.880;2023-04-30T05:14:32;40;38;21
73305;PMS5003;61530;51.158;0.880;2023-04-30T05:15:36;52;45;21
73305;PMS5003;61530;51.158;0.880;2023-04-30T05:16:39;46;43;21
73305;PMS5003;61530;51.158;0.880;2023-04-30T05:17:42;53;46;24
73305;PMS5003;61530;51.158;0.880;2023-04-30T05:18:48;44;40;19
73305;PMS5003;61530;51.158;0.880;2023-04-30T05:19:52;44;42;22
73305;PMS5003;61530;51.158;0.880;2023-04-30T05:20:55;44;41;24
73305;PMS5003;61530;51.158;0.880;2023-04-30T05:21:59;46;40;21
73305;PMS5003;61530;51.158;0.880;2023-04-30T05:23:04;46;43;22
73305;PMS5003;61530;51.158;0.880;2023-04-30T05:24:08;43;40;23
73305;PMS5003;61530;51.158;0.880;2023-04-30T05:25:11;39;37;22
73305;PMS5003;61530;51.158;0.880;2023-04-30T05:26:14;49;46;23
73305;PMS5003;61530;51.158;0.880;2023-04-30T05:27:20;44;41;22
73305;PMS5003;61530;51.158;0.880;2023-04-30T05:28:24;44;39;22
73305;PMS5003;61530;51.158;0.880;2023-04-30T05:29:27;49;43;23
73305;PMS5003;61530;51.158;0.880;2023-04-30T05:30:31;47;44;24
73305;PMS5003;61530;51.158;0.880;2023-04-30T05:31:36;48;44;24
73305;PMS5003;61530;51.158;0.880;2023-04-30T05:32:40;45;44;22
73305;PMS5003;61530;51.158;0.880;2023-04-30T05:33:43;51;48;25
73305;PMS5003;61530;51.158;0.880;2023-04-30T05:34:46;48;45;26
73305;PMS5003;61530;51.158;0.880;2023-04-30T05:35:52;45;42;23
73305;PMS5003;61530;51.158;0.880;2023-04-30T05:36:56;49;45;24
73305;PMS5003;61530;51.158;0.880;2023-04-30T05:37:59;49;45;27
73305;PMS5003;61530;51.158;0.880;2023-04-30T05:39:03;45;43;27
73305;PMS5003;61530;51.158;0.880;2023-04-30T05:40:08;46;46;23
73305;PMS5003;61530;51.158;0.880;2023-04-30T05:41:12;46;40;27
73305;PMS5003;61530;51.158;0.880;2023-04-30T05:42:15;48;46;24
73305;PMS5003;61530;51.158;0.880;2023-04-30T05:43:18;50;48;26
73305;PMS5003;61530;51.158;0.880;2023-04-30T05:44:24;41;34;22
73305;PMS5003;61530;51.158;0.880;2023-04-30T05:45:28;49;42;22
73305;PMS5003;61530;51.158;0.880;2023-04-30T05:46:31;50;45;24
73305;PMS5003;61530;51.158;0.880;2023-04-30T05:47:35;45;41;21
73305;PMS5003;61530;51.158;0.880;2023-04-30T05:48:40;42;40;24
73305;PMS5003;61530;51.158;0.880;2023-04-30T05:49:44;48;42;21
73305;PMS5003;61530;51.158;0.880;2023-04-30T05:50:47;51;46;24
73305;PMS5003;61530;51.158;0.880;2023-04-30T05:51:50;40;38;21
73305;PMS5003;61530;51.158;0.880;2023-04-30T05:52:56;46;43;21
73305;PMS5003;61530;51.158;0.880;2023-04-30T05:54:00;45;42;21
73305;PMS5003;61530;51.158;0.880;2023-04-30T05:55:03;43;39;22
73305;PMS5003;61530;51.158;0.880;2023-04-30T05:56:07;48;42;24
73305;PMS5003;61530;51.158;0.880;2023-04-30T05:57:12;49;43;24
73305;PMS5003;61530;51.158;0.880;2023-04-30T05:58:16;39;35;21
73305;PMS5003;61530;51.158;0.880;2023-04-30T05:59:19;49;46;26
73305;PMS5003;61530;51.158;0.880;2023-04-30T06:00:23;48;43;22
73305;PMS5003;61530;51.158;0.880;2023-04-30T06:01:28;49;44;25
73305;PMS5003;61530;51.158;0.880;2023-04-30T06:02:32;38;36;22
73305;PMS5003;61530;51.158;0.880;2023-04-30T06:03:35;44;38;19
73305;PMS5003;61530;51.158;0.880;2023-04-30T06:04:39;44;36;22
73305;PMS5003;61530;51.158;0.880;2023-04-30T06:05:44;44;40;21
73305;PMS5003;61530;51.158;0.880;2023-04-30T06:06:48;47;45;26
73305;PMS5003;61530;51.158;0.880;2023-04-30T06:07:51;46;43;25
73305;PMS5003;61530;51.158;0.880;2023-04-30T06:08:55;46;42;24
73305;PMS5003;61530;51.158;0.880;2023-04-30T06:10:01;42;34;22
73305;PMS5003;61530;51.158;0.880;2023-04-30T06:11:04;43;36;22
73305;PMS5003;61530;51.158;0.880;2023-04-30T06:12:07;40;36;23
73305;PMS5003;61530;51.158;0.880;2023-04-30T06:13:11;50;45;23
73305;PMS5003;61530;51.158;0.880;2023-04-30T06:14:16;43;42;24
73305;PMS5003;61530;51.158;0.880;2023-04-30T06:15:20;45;45;24
73305;PMS5003;61530;51.158;0.880;2023-04-30T06:16:23;48;45;23
73305;PMS5003;61530;51.158;0.880;2023-04-30T06:17:27;43;41;24
73305;PMS5003;61530;51.158;0.880;2023-04-30T06:18:32;43;39;22
73305;PMS5003;61530;51.158;0.880;2023-04-30T06:19:36;47;45;23
73305;PMS5003;61530;51.158;0.880;2023-04-30T06:20:39;44;38;22
73305;PMS5003;61530;51.158;0.880;2023-04-30T06:21:43;38;38;24
73305;PMS5003;61530;51.158;0.880;2023-04-30T06:22:48;47;42;23
73305;PMS5003;61530;51.158;0.880;2023-04-30T06:23:52;39;38;22
73305;PMS5003;61530;51.158;0.880;2023-04-30T06:24:55;37;35;21
73305;PMS5003;61530;51.158;0.880;2023-04-30T06:25:58;46;43;23
73305;PMS5003;61530;51.158;0.880;2023-04-30T06:27:04;40;37;23
73305;PMS5003;61530;51.158;0.880;2023-04-30T06:28:08;44;40;25
73305;PMS5003;61530;51.158;0.880;2023-04-30T06:29:11;45;43;23
73305;PMS5003;61530;51.158;0.880;2023-04-30T06:30:15;44;44;24
73305;PMS5003;61530;51.158;0.880;2023-04-30T06:31:20;46;44;22
73305;PMS5003;61530;51.158;0.880;2023-04-30T06:32:24;43;43;25
73305;PMS5003;61530;51.158;0.880;2023-04-30T06:33:27;47;42;27
73305;PMS5003;61530;51.158;0.880;2023-04-30T06:34:31;52;47;24
73305;PMS5003;61530;51.158;0.880;2023-04-30T06:35:36;47;41;27
73305;PMS5003;61530;51.158;0.880;2023-04-30T06:36:40;43;39;25
73305;PMS5003;61530;51.158;0.880;2023-04-30T06:37:43;41;37;24
73305;PMS5003;61530;51.158;0.880;2023-04-30T06:38:47;42;38;24
73305;PMS5003;61530;51.158;0.880;2023-04-30T06:39:52;43;40;24
73305;PMS5003;61530;51.158;0.880;2023-04-30T06:40:56;48;43;24
73305;PMS5003;61530;51.158;0.880;2023-04-30T06:41:59;51;45;26
73305;PMS5003;61530;51.158;0.880;2023-04-30T06:43:03;45;44;26
73305;PMS5003;61530;51.158;0.880;2023-04-30T06:44:08;48;47;24
73305;PMS5003;61530;51.158;0.880;2023-04-30T06:45:12;41;38;23
73305;PMS5003;61530;51.158;0.880;2023-04-30T06:46:15;45;42;25
73305;PMS5003;61530;51.158;0.880;2023-04-30T06:47:18;52;46;26
73305;PMS5003;61530;51.158;0.880;2023-04-30T06:48:24;42;41;26
73305;PMS5003;61530;51.158;0.880;2023-04-30T06:49:28;45;43;27
73305;PMS5003;61530;51.158;0.880;2023-04-30T06:50:31;36;36;23
73305;PMS5003;61530;51.158;0.880;2023-04-30T06:51:34;47;42;26
73305;PMS5003;61530;51.158;0.880;2023-04-30T06:52:40;42;39;23
73305;PMS5003;61530;51.158;0.880;2023-04-30T06:53:44;59;48;25
73305;PMS5003;61530;51.158;0.880;2023-04-30T06:54:47;43;36;21
73305;PMS5003;61530;51.158;0.880;2023-04-30T06:55:50;37;37;23
73305;PMS5003;61530;51.158;0.880;2023-04-30T06:56:56;47;45;25
73305;PMS5003;61530;51.158;0.880;2023-04-30T06:58:00;39;38;24